Terminal Aerodrome Forecast
Issued by NWS Grand Forks, ND

Home | Current Version | Previous Version | Graphics & Text | Print | Product List | Glossary Off
Versions: 1 2 3 4 5 6 7 8 9 10 11 12 13 14 15 16 17 18 19

000
FTUS43 KFGF 241722
TAFGFK
TAF
KGFK 241722Z 2418/2518 27014G20KT P6SM FEW025 SCT070
     FM242000 30014G22KT P6SM BKN035
     FM250000 31010KT P6SM SCT050
     FM250300 27004KT P6SM FEW250=

USA.gov is the U.S. government's official web portal to all federal, state and local government web resources and services.